createdAt,value
2018-01-29T00:00:42.760Z,2.43
2018-01-29T00:03:10.501Z,2.22
2018-01-29T00:05:38.880Z,2.67
2018-01-29T00:08:06.508Z,2.10
2018-01-29T00:10:34.106Z,2.30
2018-01-29T00:13:01.760Z,2.00
2018-01-29T00:15:29.359Z,2.20
2018-01-29T00:17:57.102Z,2.50
2018-01-29T00:20:24.730Z,2.50
2018-01-29T00:22:52.336Z,2.12
2018-01-29T00:25:19.983Z,1.95
2018-01-29T00:27:47.583Z,1.90
2018-01-29T00:30:15.969Z,2.12
2018-01-29T00:32:44.370Z,1.80
2018-01-29T00:35:11.981Z,1.77
2018-01-29T00:37:39.623Z,1.90
2018-01-29T00:40:07.256Z,2.00
2018-01-29T00:42:35.674Z,2.00
2018-01-29T00:45:03.330Z,2.40
2018-01-29T00:47:30.990Z,1.80
2018-01-29T00:49:58.610Z,1.73
2018-01-29T00:52:26.264Z,2.20
2018-01-29T00:54:53.924Z,2.10
2018-01-29T00:57:21.560Z,2.03
2018-01-29T00:59:49.259Z,1.70
2018-01-29T01:02:16.901Z,2.00
2018-01-29T01:04:44.588Z,2.00
2018-01-29T01:07:12.265Z,1.75
2018-01-29T01:09:39.948Z,2.20
2018-01-29T01:12:07.680Z,1.92
2018-01-29T01:14:36.112Z,1.83
2018-01-29T01:17:03.814Z,1.92
2018-01-29T01:19:31.608Z,2.10
2018-01-29T01:22:00.064Z,2.25
2018-01-29T01:24:27.823Z,2.00
2018-01-29T01:26:55.523Z,2.20
2018-01-29T01:29:23.730Z,1.83
2018-01-29T01:31:52.268Z,2.03
2018-01-29T01:34:20.010Z,2.37
2018-01-29T01:36:48.405Z,1.90
2018-01-29T01:39:17.392Z,2.20
2018-01-29T01:41:46.075Z,2.10
2018-01-29T01:44:13.733Z,2.12
2018-01-29T01:46:41.412Z,2.30
2018-01-29T01:49:09.924Z,2.20
2018-01-29T01:51:37.635Z,2.00
2018-01-29T01:54:05.370Z,2.08
2018-01-29T01:56:33.049Z,2.22
2018-01-29T01:59:00.780Z,2.40
2018-01-29T02:01:29.242Z,2.10
2018-01-29T02:03:57.735Z,2.20
2018-01-29T02:06:26.195Z,2.35
2018-01-29T02:08:53.989Z,2.03
2018-01-29T02:11:22.613Z,2.33
2018-01-29T02:13:50.290Z,2.30
2018-01-29T02:16:18.001Z,2.42
2018-01-29T02:18:46.012Z,2.50
2018-01-29T02:21:14.507Z,2.03
2018-01-29T02:23:42.131Z,2.28
2018-01-29T02:26:09.723Z,2.30
2018-01-29T02:28:38.140Z,2.00
2018-01-29T02:31:05.783Z,2.00
2018-01-29T02:33:34.184Z,2.00
2018-01-29T02:36:01.795Z,1.90
2018-01-29T02:38:29.480Z,2.20
2018-01-29T02:40:57.867Z,2.03
2018-01-29T02:43:25.466Z,2.10
2018-01-29T02:45:53.143Z,1.90
2018-01-29T02:48:20.792Z,1.75
2018-01-29T02:50:48.419Z,1.90
2018-01-29T02:53:16.074Z,1.75
2018-01-29T02:55:43.675Z,2.00
2018-01-29T02:58:12.048Z,1.85
2018-01-29T03:00:39.677Z,1.90
2018-01-29T03:03:08.088Z,2.12
2018-01-29T03:05:35.729Z,2.08
2018-01-29T03:08:03.403Z,2.30
2018-01-29T03:10:31.035Z,1.90
2018-01-29T03:12:58.657Z,2.12
2018-01-29T03:15:26.602Z,2.10
2018-01-29T03:17:54.223Z,2.40
2018-01-29T03:20:21.837Z,2.10
2018-01-29T03:22:49.843Z,2.22
2018-01-29T03:25:17.448Z,2.33
2018-01-29T03:27:45.764Z,2.40
2018-01-29T03:30:13.380Z,2.47
2018-01-29T03:32:41.044Z,2.40
2018-01-29T03:35:09.408Z,2.55
2018-01-29T03:37:37.826Z,2.50
2018-01-29T03:40:05.653Z,2.50
2018-01-29T03:42:33.273Z,2.35
2018-01-29T03:45:00.910Z,2.67
2018-01-29T03:47:29.288Z,2.83
2018-01-29T03:49:57.731Z,2.42
2018-01-29T03:52:25.322Z,2.50
2018-01-29T03:54:52.942Z,2.83
2018-01-29T03:57:20.599Z,2.35
2018-01-29T03:59:48.236Z,2.83
2018-01-29T04:02:16.637Z,2.67
2018-01-29T04:04:44.537Z,2.65
2018-01-29T04:07:12.189Z,2.60
2018-01-29T04:09:39.784Z,3.40
2018-01-29T04:12:07.441Z,2.70
2018-01-29T04:14:35.071Z,2.83
2018-01-29T04:17:02.685Z,3.22
2018-01-29T04:19:30.339Z,2.58
2018-01-29T04:21:57.994Z,2.85
2018-01-29T04:24:25.626Z,2.90
2018-01-29T04:26:53.270Z,3.40
2018-01-29T04:29:20.867Z,2.80
2018-01-29T04:31:49.325Z,2.67
2018-01-29T04:34:17.763Z,3.00
2018-01-29T04:36:45.427Z,2.95
2018-01-29T04:39:13.076Z,2.60
2018-01-29T04:41:40.709Z,2.70
2018-01-29T04:44:08.561Z,3.17
2018-01-29T04:46:36.231Z,2.87
2018-01-29T04:49:03.829Z,2.60
2018-01-29T04:51:32.195Z,2.75
2018-01-29T04:54:00.507Z,2.87
2018-01-29T04:56:28.099Z,3.12
2018-01-29T04:58:55.785Z,3.30
2018-01-29T05:01:24.224Z,3.40
2018-01-29T05:03:52.634Z,2.92
2018-01-29T05:06:20.296Z,3.10
2018-01-29T05:08:47.944Z,2.85
2018-01-29T05:11:15.719Z,3.08
2018-01-29T05:13:43.838Z,3.30
2018-01-29T05:16:11.532Z,3.12
2018-01-29T05:18:39.164Z,3.22
2018-01-29T05:21:06.873Z,3.33
2018-01-29T05:23:35.311Z,3.37
2018-01-29T05:26:02.933Z,3.75
2018-01-29T05:28:31.373Z,3.45
2018-01-29T05:30:59.004Z,3.40
2018-01-29T05:33:26.622Z,3.85
2018-01-29T05:49:18.029Z,3.40
2018-01-29T05:51:45.691Z,3.15
2018-01-29T05:54:13.352Z,2.90
2018-01-29T05:56:41.825Z,3.10
2018-01-29T05:59:09.436Z,3.20
2018-01-29T06:01:37.106Z,3.20
2018-01-29T06:04:04.764Z,3.10
2018-01-29T06:06:32.448Z,3.05
2018-01-29T06:09:00.056Z,3.37
2018-01-29T06:11:27.717Z,3.10
2018-01-29T06:13:55.486Z,3.08
2018-01-29T06:16:23.899Z,3.10
2018-01-29T06:18:51.902Z,3.55
2018-01-29T06:21:19.534Z,3.28
2018-01-29T06:23:47.224Z,3.00
2018-01-29T06:26:15.667Z,3.00
2018-01-29T06:28:43.613Z,2.67
2018-01-29T06:31:11.496Z,2.87
2018-01-29T06:33:39.151Z,3.00
2018-01-29T06:36:06.824Z,2.83
2018-01-29T06:38:34.565Z,3.15
2018-01-29T06:41:02.317Z,2.70
2018-01-29T06:43:30.741Z,3.00
2018-01-29T06:45:58.748Z,2.70
2018-01-29T06:48:26.398Z,3.67
2018-01-29T06:50:54.160Z,2.97
2018-01-29T06:53:21.821Z,3.17
2018-01-29T06:55:49.693Z,3.53
2018-01-29T06:58:18.251Z,3.15
2018-01-29T07:00:45.871Z,3.13
2018-01-29T07:03:13.514Z,3.28
2018-01-29T07:05:42.180Z,3.17
2018-01-29T07:08:09.998Z,2.62
2018-01-29T07:10:37.709Z,3.60
2018-01-29T07:13:06.133Z,3.37
2018-01-29T07:15:34.594Z,3.00
2018-01-29T07:18:02.203Z,3.35
2018-01-29T07:20:29.836Z,3.35
2018-01-29T07:22:57.526Z,3.20
2018-01-29T07:25:25.730Z,3.05
2018-01-29T07:27:53.388Z,2.78
2018-01-29T07:30:21.015Z,2.60
2018-01-29T07:32:48.662Z,2.53
2018-01-29T07:35:16.318Z,2.50
2018-01-29T07:37:44.672Z,3.05
2018-01-29T07:40:12.284Z,2.60
2018-01-29T07:42:40.071Z,2.80
2018-01-29T07:45:07.912Z,2.80
2018-01-29T07:47:36.350Z,2.50
2018-01-29T07:50:03.976Z,2.42
2018-01-29T07:52:31.871Z,2.78
2018-01-29T07:55:00.300Z,2.87
2018-01-29T07:57:27.900Z,2.30
2018-01-29T07:59:55.560Z,2.80
2018-01-29T08:02:23.228Z,2.50
2018-01-29T08:04:51.075Z,2.65
2018-01-29T08:07:18.724Z,2.30
2018-01-29T08:12:16.295Z,2.45
2018-01-29T08:14:44.616Z,2.50
2018-01-29T08:17:12.999Z,2.17
2018-01-29T08:19:41.524Z,2.37
2018-01-29T08:22:09.132Z,2.45
2018-01-29T08:24:36.803Z,1.83
2018-01-29T08:27:04.546Z,2.40
2018-01-29T08:29:32.898Z,2.10
2018-01-29T08:32:00.573Z,2.35
2018-01-29T08:34:28.238Z,2.30
2018-01-29T08:36:55.864Z,2.50
2018-01-29T08:39:23.525Z,2.20
2018-01-29T08:41:51.122Z,2.50
2018-01-29T08:44:18.864Z,2.08
2018-01-29T08:46:46.488Z,2.28
2018-01-29T08:49:15.087Z,2.25
2018-01-29T08:51:42.850Z,2.30
2018-01-29T08:54:10.482Z,2.60
2018-01-29T08:56:38.098Z,2.30
2018-01-29T08:59:05.738Z,2.90
2018-01-29T09:01:33.449Z,2.78
2018-01-29T09:04:01.072Z,2.50
2018-01-29T09:06:28.860Z,2.40
2018-01-29T09:08:56.486Z,3.05
2018-01-29T09:11:24.111Z,2.55
2018-01-29T09:13:52.173Z,3.10
2018-01-29T09:16:19.817Z,3.03
2018-01-29T09:18:47.767Z,3.15
2018-01-29T09:21:15.639Z,3.00
2018-01-29T09:23:43.275Z,2.55
2018-01-29T09:26:10.928Z,3.33
2018-01-29T09:28:38.586Z,3.10
2018-01-29T09:31:06.195Z,3.05
2018-01-29T09:33:34.657Z,2.92
2018-01-29T09:36:02.371Z,2.83
2018-01-29T09:38:30.007Z,3.00
2018-01-29T09:40:58.426Z,2.90
2018-01-29T09:43:26.635Z,3.42
2018-01-29T09:45:54.239Z,2.90
2018-01-29T09:48:22.644Z,3.00
2018-01-29T09:50:50.266Z,3.50
2018-01-29T09:53:18.481Z,3.28
2018-01-29T09:55:46.082Z,3.37
2018-01-29T09:58:13.770Z,3.20
2018-01-29T10:00:41.395Z,3.00
2018-01-29T10:03:09.016Z,3.40
2018-01-29T10:05:36.652Z,2.92
2018-01-29T10:08:04.283Z,3.50
2018-01-29T10:10:31.944Z,4.10
2018-01-29T10:13:00.314Z,3.72
2018-01-29T10:15:28.720Z,3.78
2018-01-29T10:17:56.352Z,3.25
2018-01-29T10:20:24.000Z,4.05
2018-01-29T10:22:51.600Z,4.57
2018-01-29T10:25:21.012Z,3.33
2018-01-29T10:27:49.373Z,4.22
2018-01-29T10:30:16.997Z,3.40
2018-01-29T10:32:44.728Z,3.22
2018-01-29T10:35:13.113Z,3.30
2018-01-29T10:37:40.770Z,3.35
2018-01-29T10:40:09.147Z,3.62
2018-01-29T10:42:36.770Z,3.67
2018-01-29T10:45:04.704Z,3.05
2018-01-29T10:47:33.071Z,3.08
2018-01-29T10:50:00.732Z,2.92
2018-01-29T10:52:28.339Z,2.90
2018-01-29T10:54:56.026Z,3.25
2018-01-29T10:57:23.890Z,3.50
2018-01-29T10:59:51.498Z,3.17
2018-01-29T11:02:19.096Z,2.83
2018-01-29T11:04:46.889Z,3.28
2018-01-29T11:07:14.578Z,3.05
2018-01-29T11:09:42.359Z,3.70
2018-01-29T11:12:09.967Z,3.03
2018-01-29T11:14:38.508Z,2.90
2018-01-29T11:17:06.122Z,5.00
2018-01-29T11:19:33.778Z,3.28
2018-01-29T11:22:01.494Z,3.57
2018-01-29T11:24:29.211Z,3.45
2018-01-29T11:26:57.654Z,2.90
2018-01-29T11:29:25.324Z,2.85
2018-01-29T11:31:52.950Z,3.10
2018-01-29T11:34:20.555Z,3.35
2018-01-29T11:36:48.238Z,3.37
2018-01-29T11:39:15.841Z,3.53
2018-01-29T11:41:43.566Z,3.50
2018-01-29T11:44:11.171Z,3.33
2018-01-29T11:46:38.810Z,3.10
2018-01-29T11:49:07.179Z,2.92
2018-01-29T11:51:34.777Z,2.90
2018-01-29T11:54:03.193Z,3.15
2018-01-29T11:56:30.824Z,3.53
2018-01-29T11:58:59.206Z,2.65
2018-01-29T12:01:27.677Z,2.55
2018-01-29T12:03:55.356Z,2.80
2018-01-29T12:06:23.724Z,2.65
2018-01-29T12:08:51.334Z,3.65
2018-01-29T12:11:18.956Z,1.92
2018-01-29T12:13:46.597Z,2.30
2018-01-29T12:16:14.268Z,2.08
2018-01-29T12:18:41.894Z,2.20
2018-01-29T12:21:09.661Z,1.70
2018-01-29T12:23:37.318Z,1.98
2018-01-29T12:26:06.077Z,1.90
2018-01-29T12:28:33.672Z,1.52
2018-01-29T12:31:02.081Z,2.90
2018-01-29T12:33:29.788Z,1.80
2018-01-29T12:35:57.380Z,2.00
2018-01-29T12:38:25.105Z,2.20
2018-01-29T12:40:54.238Z,2.57
2018-01-29T12:43:22.003Z,2.15
2018-01-29T12:45:49.651Z,1.90
2018-01-29T12:48:17.857Z,2.05
2018-01-29T12:50:46.233Z,2.47
2018-01-29T12:53:14.952Z,1.95
2018-01-29T12:55:44.186Z,2.00
2018-01-29T12:58:11.941Z,2.83
2018-01-29T13:00:39.595Z,2.55
2018-01-29T13:03:07.995Z,2.05
2018-01-29T13:05:35.685Z,1.87
2018-01-29T13:08:03.284Z,1.70
2018-01-29T13:10:31.394Z,1.90
2018-01-29T13:12:59.000Z,2.37
2018-01-29T13:15:26.612Z,1.85
2018-01-29T13:17:55.095Z,3.12
2018-01-29T13:20:23.471Z,2.20
2018-01-29T13:22:51.928Z,2.00
2018-01-29T13:25:19.615Z,1.73
2018-01-29T13:27:48.687Z,2.65
2018-01-29T13:30:16.309Z,2.08
2018-01-29T13:32:44.214Z,2.72
2018-01-29T13:35:11.851Z,1.90
2018-01-29T13:37:39.583Z,1.80
2018-01-29T13:40:07.258Z,3.30
2018-01-29T13:42:35.650Z,2.20
2018-01-29T13:45:04.327Z,2.30
2018-01-29T13:47:31.934Z,3.33
2018-01-29T13:49:59.797Z,3.00
2018-01-29T13:52:28.483Z,2.50
2018-01-29T13:54:56.849Z,3.03
2018-01-29T13:57:25.354Z,2.40
2018-01-29T13:59:53.837Z,2.35
2018-01-29T14:02:21.536Z,2.70
2018-01-29T14:04:49.173Z,4.25
2018-01-29T14:07:16.870Z,4.03
2018-01-29T14:09:44.696Z,3.05
2018-01-29T14:12:12.425Z,2.50
2018-01-29T14:14:40.044Z,3.20
2018-01-29T14:17:09.174Z,2.20
2018-01-29T14:19:36.805Z,2.72
2018-01-29T14:22:05.263Z,2.57
2018-01-29T14:24:32.880Z,3.35
2018-01-29T14:27:00.537Z,2.87
2018-01-29T14:29:28.970Z,2.78
2018-01-29T14:31:57.428Z,2.17
2018-01-29T14:34:25.120Z,2.75
2018-01-29T14:36:52.801Z,2.78
2018-01-29T14:39:20.472Z,3.10
2018-01-29T14:41:48.082Z,2.60
2018-01-29T14:44:15.978Z,2.22
2018-01-29T14:46:43.653Z,2.55
2018-01-29T14:49:11.386Z,2.62
2018-01-29T14:51:39.055Z,2.60
2018-01-29T14:54:06.677Z,3.20
2018-01-29T14:56:34.307Z,2.40
2018-01-29T14:59:01.994Z,5.55
2018-01-29T15:01:30.430Z,2.50
2018-01-29T15:03:58.013Z,2.12
2018-01-29T15:06:25.700Z,2.45
2018-01-29T15:08:53.478Z,2.60
2018-01-29T15:11:21.578Z,3.15
2018-01-29T15:13:49.179Z,2.50
2018-01-29T15:16:16.887Z,2.75
2018-01-29T15:18:44.507Z,3.00
2018-01-29T15:21:12.174Z,2.90
2018-01-29T15:23:39.784Z,2.50
2018-01-29T15:26:07.422Z,2.72
2018-01-29T15:28:35.198Z,3.03
2018-01-29T15:31:04.140Z,3.67
2018-01-29T15:33:32.555Z,3.20
2018-01-29T15:36:00.311Z,3.35
2018-01-29T15:38:27.896Z,3.60
2018-01-29T15:40:55.500Z,3.20
2018-01-29T15:43:23.240Z,3.78
2018-01-29T15:45:50.850Z,3.30
2018-01-29T15:48:19.365Z,3.73
2018-01-29T15:50:47.085Z,3.30
2018-01-29T15:53:15.490Z,3.53
2018-01-29T15:55:43.926Z,3.72
2018-01-29T15:58:11.533Z,3.75
2018-01-29T16:00:39.139Z,3.60
2018-01-29T16:03:06.774Z,3.28
2018-01-29T16:05:34.397Z,3.60
2018-01-29T16:08:02.015Z,3.42
2018-01-29T16:10:30.553Z,3.28
2018-01-29T16:12:58.185Z,3.70
2018-01-29T16:15:26.286Z,3.40
2018-01-29T16:17:54.822Z,3.45
2018-01-29T16:20:23.189Z,3.40
2018-01-29T16:22:51.014Z,3.60
2018-01-29T16:28:09.679Z,3.70
2018-01-29T16:30:37.373Z,4.70
2018-01-29T16:33:05.017Z,3.75
2018-01-29T16:35:34.467Z,3.95
2018-01-29T16:38:02.854Z,4.20
2018-01-29T16:40:31.237Z,3.40
2018-01-29T16:42:58.888Z,4.05
2018-01-29T16:45:26.564Z,3.55
2018-01-29T16:47:54.232Z,3.55
2018-01-29T16:50:21.835Z,3.80
2018-01-29T16:52:49.493Z,3.90
2018-01-29T16:55:17.121Z,3.30
2018-01-29T16:57:44.795Z,3.50
2018-01-29T17:00:12.394Z,3.45
2018-01-29T17:02:40.038Z,3.80
2018-01-29T17:05:09.235Z,3.63
2018-01-29T17:07:36.859Z,3.42
2018-01-29T17:10:04.814Z,3.60
2018-01-29T17:12:32.420Z,3.47
2018-01-29T17:15:00.077Z,3.60
2018-01-29T17:17:27.726Z,4.05
2018-01-29T17:19:55.319Z,3.70
2018-01-29T17:22:22.962Z,4.20
2018-01-29T17:24:50.604Z,4.37
2018-01-29T17:27:19.522Z,4.30
2018-01-29T17:29:47.184Z,3.60
2018-01-29T17:32:14.888Z,4.20
2018-01-29T17:34:43.550Z,4.45
2018-01-29T17:37:12.032Z,3.90
2018-01-29T17:39:40.376Z,3.97
2018-01-29T17:42:08.045Z,3.90
2018-01-29T17:44:37.029Z,4.05
2018-01-29T17:47:05.644Z,4.20
2018-01-29T17:49:33.264Z,4.00
2018-01-29T17:52:00.955Z,4.45
2018-01-29T17:54:29.360Z,4.37
2018-01-29T17:56:56.945Z,3.37
2018-01-29T17:59:24.608Z,3.37
2018-01-29T18:01:52.274Z,3.85
2018-01-29T18:04:19.953Z,3.90
2018-01-29T18:06:47.835Z,3.53
2018-01-29T18:09:15.476Z,3.90
2018-01-29T18:11:43.108Z,4.03
2018-01-29T18:14:10.732Z,4.20
2018-01-29T18:16:38.748Z,4.00
2018-01-29T18:19:06.378Z,4.30
2018-01-29T18:21:33.990Z,4.25
2018-01-29T18:24:02.452Z,3.85
2018-01-29T18:26:30.055Z,4.00
2018-01-29T18:28:57.747Z,4.43
2018-01-29T18:31:25.343Z,4.28
2018-01-29T18:33:52.993Z,3.65
2018-01-29T18:36:20.686Z,4.00
2018-01-29T18:38:48.401Z,3.80
2018-01-29T18:41:17.261Z,4.37
2018-01-29T18:43:45.704Z,4.25
2018-01-29T18:46:13.571Z,4.30
2018-01-29T18:48:41.610Z,3.95
2018-01-29T18:51:09.325Z,4.25
2018-01-29T18:53:37.867Z,3.80
2018-01-29T18:56:05.619Z,3.90
2018-01-29T18:58:34.068Z,4.13
2018-01-29T19:01:01.666Z,3.97
2018-01-29T19:03:30.247Z,4.40
2018-01-29T19:05:57.849Z,3.78
2018-01-29T19:08:25.481Z,4.28
2018-01-29T19:10:54.275Z,3.90
2018-01-29T19:13:21.955Z,4.03
2018-01-29T19:15:49.725Z,3.78
2018-01-29T19:18:18.199Z,3.40
2018-01-29T19:20:46.706Z,3.80
2018-01-29T19:23:14.554Z,3.80
2018-01-29T19:25:43.173Z,3.72
2018-01-29T19:28:10.838Z,3.70
2018-01-29T19:30:38.504Z,4.22
2018-01-29T19:33:07.262Z,3.87
2018-01-29T19:35:34.886Z,3.80
2018-01-29T19:38:02.585Z,3.80
2018-01-29T19:40:30.755Z,3.53
2018-01-29T19:42:58.547Z,3.70
2018-01-29T19:45:26.244Z,3.33
2018-01-29T19:47:54.637Z,3.27
2018-01-29T19:50:22.303Z,3.90
2018-01-29T19:52:50.090Z,3.55
2018-01-29T19:55:17.809Z,3.20
2018-01-29T19:57:45.415Z,3.30
2018-01-29T20:00:13.113Z,3.30
2018-01-29T20:02:40.795Z,3.30
2018-01-29T20:05:08.402Z,3.10
2018-01-29T20:07:36.144Z,2.97
2018-01-29T20:10:03.853Z,2.67
2018-01-29T20:12:32.317Z,2.78
2018-01-29T20:15:00.637Z,2.90
2018-01-29T20:17:28.296Z,2.50
2018-01-29T20:19:56.702Z,2.30
2018-01-29T20:22:24.343Z,1.95
2018-01-29T20:24:52.242Z,1.50
2018-01-29T20:27:19.969Z,1.55
2018-01-29T20:29:47.671Z,1.60
2018-01-29T20:32:15.323Z,1.80
2018-01-29T20:34:43.701Z,1.50
2018-01-29T20:37:12.203Z,1.40
2018-01-29T20:39:39.862Z,1.65
2018-01-29T20:42:08.300Z,1.50
2018-01-29T20:44:37.083Z,1.40
2018-01-29T20:47:04.728Z,1.58
2018-01-29T20:49:32.399Z,1.58
2018-01-29T20:52:00.823Z,1.08
2018-01-29T20:54:28.521Z,1.50
2018-01-29T20:56:56.914Z,1.15
2018-01-29T20:59:24.613Z,1.58
2018-01-29T21:01:52.198Z,1.27
2018-01-29T21:04:19.850Z,1.30
2018-01-29T21:06:47.593Z,1.50
2018-01-29T21:09:15.285Z,1.40
2018-01-29T21:11:43.814Z,1.30
2018-01-29T21:14:12.250Z,1.42
2018-01-29T21:16:40.035Z,1.40
2018-01-29T21:19:08.487Z,1.60
2018-01-29T21:21:36.210Z,1.30
2018-01-29T21:24:03.867Z,1.50
2018-01-29T21:26:31.518Z,1.60
2018-01-29T21:28:59.168Z,1.27
2018-01-29T21:31:26.862Z,1.50
2018-01-29T21:33:54.568Z,1.30
2018-01-29T21:36:22.995Z,1.40
2018-01-29T21:38:50.678Z,1.60
2018-01-29T21:41:18.309Z,1.60
2018-01-29T21:43:45.990Z,1.40
2018-01-29T21:46:13.652Z,1.70
2018-01-29T21:48:41.330Z,1.60
2018-01-29T21:51:08.947Z,1.20
2018-01-29T21:53:36.593Z,2.00
2018-01-29T21:56:05.030Z,1.50
2018-01-29T21:58:32.786Z,1.50
2018-01-29T22:01:00.506Z,1.80
2018-01-29T22:03:28.106Z,1.55
2018-01-29T22:05:56.541Z,1.62
2018-01-29T22:08:24.676Z,1.73
2018-01-29T22:10:52.282Z,1.30
2018-01-29T22:13:20.081Z,1.50
2018-01-29T22:15:47.742Z,1.60
2018-01-29T22:18:15.421Z,1.70
2018-01-29T22:20:43.919Z,1.77
2018-01-29T22:23:11.632Z,1.60
2018-01-29T22:25:39.220Z,1.60
2018-01-29T22:28:06.892Z,1.73
2018-01-29T22:30:34.551Z,1.77
2018-01-29T22:33:02.839Z,1.90
2018-01-29T22:35:31.214Z,1.40
2018-01-29T22:37:59.014Z,1.98
2018-01-29T22:40:26.637Z,1.77
2018-01-29T22:42:54.295Z,1.50
2018-01-29T22:45:21.985Z,2.20
2018-01-29T22:47:49.639Z,1.90
2018-01-29T22:50:17.305Z,1.73
2018-01-29T22:52:45.374Z,1.85
2018-01-29T22:55:12.997Z,1.80
2018-01-29T22:57:41.412Z,1.65
2018-01-29T23:00:09.070Z,2.00
2018-01-29T23:02:36.683Z,1.80
2018-01-29T23:05:04.376Z,1.80
2018-01-29T23:07:32.790Z,2.03
2018-01-29T23:10:00.392Z,1.50
2018-01-29T23:12:28.948Z,1.92
2018-01-29T23:14:56.545Z,1.95
2018-01-29T23:17:24.301Z,1.92
2018-01-29T23:19:51.933Z,1.62
2018-01-29T23:22:19.567Z,1.77
2018-01-29T23:24:47.263Z,2.47
2018-01-29T23:27:15.652Z,1.98
2018-01-29T23:29:43.272Z,1.70
2018-01-29T23:32:10.947Z,2.33
2018-01-29T23:34:38.609Z,2.17
2018-01-29T23:37:06.221Z,1.83
2018-01-29T23:39:33.913Z,1.70
2018-01-29T23:42:01.577Z,2.20
2018-01-29T23:44:29.215Z,1.92
2018-01-29T23:46:57.613Z,1.90
2018-01-29T23:49:25.281Z,2.28
2018-01-29T23:51:52.926Z,1.95
2018-01-29T23:54:21.320Z,2.10
2018-01-29T23:56:48.914Z,2.10
2018-01-29T23:59:17.313Z,1.67
